sensor_id;sensor_type;location;lat;lon;timestamp;P1;durP1;ratioP1;P2;durP2;ratioP2
59374;SDS011;45172;55.006;73.460;2022-08-11T00:01:50;272.15;;;166.35;;
59374;SDS011;45172;55.006;73.460;2022-08-11T00:04:20;266.40;;;163.07;;
59374;SDS011;45172;55.006;73.460;2022-08-11T00:06:49;279.65;;;168.50;;
59374;SDS011;45172;55.006;73.460;2022-08-11T00:09:18;274.08;;;173.15;;
59374;SDS011;45172;55.006;73.460;2022-08-11T00:14:20;280.63;;;175.45;;
59374;SDS011;45172;55.006;73.460;2022-08-11T00:17:02;277.70;;;177.40;;
59374;SDS011;45172;55.006;73.460;2022-08-11T00:19:30;294.50;;;180.35;;
59374;SDS011;45172;55.006;73.460;2022-08-11T00:21:58;292.58;;;184.32;;
59374;SDS011;45172;55.006;73.460;2022-08-11T00:27:11;297.92;;;174.20;;
59374;SDS011;45172;55.006;73.460;2022-08-11T00:29:37;312.90;;;189.68;;
59374;SDS011;45172;55.006;73.460;2022-08-11T00:32:11;299.33;;;186.85;;
59374;SDS011;45172;55.006;73.460;2022-08-11T00:34:39;304.95;;;186.75;;
59374;SDS011;45172;55.006;73.460;2022-08-11T00:37:09;309.52;;;188.55;;
59374;SDS011;45172;55.006;73.460;2022-08-11T00:39:57;317.40;;;186.55;;
59374;SDS011;45172;55.006;73.460;2022-08-11T00:45:25;311.52;;;185.55;;
59374;SDS011;45172;55.006;73.460;2022-08-11T00:53:40;304.98;;;186.15;;
59374;SDS011;45172;55.006;73.460;2022-08-11T01:02:13;297.60;;;184.35;;
59374;SDS011;45172;55.006;73.460;2022-08-11T01:07:32;307.25;;;185.88;;
59374;SDS011;45172;55.006;73.460;2022-08-11T01:44:33;287.73;;;171.65;;
59374;SDS011;45172;55.006;73.460;2022-08-11T01:53:37;297.67;;;173.85;;
59374;SDS011;45172;55.006;73.460;2022-08-11T01:56:14;305.17;;;177.25;;
59374;SDS011;45172;55.006;73.460;2022-08-11T02:04:54;300.33;;;172.10;;
59374;SDS011;45172;55.006;73.460;2022-08-11T02:10:48;285.35;;;165.40;;
59374;SDS011;45172;55.006;73.460;2022-08-11T02:13:48;309.17;;;177.35;;
59374;SDS011;45172;55.006;73.460;2022-08-11T02:23:20;306.05;;;173.30;;
59374;SDS011;45172;55.006;73.460;2022-08-11T02:25:58;300.00;;;175.30;;
59374;SDS011;45172;55.006;73.460;2022-08-11T02:31:25;303.58;;;163.75;;
59374;SDS011;45172;55.006;73.460;2022-08-11T02:37:09;305.10;;;177.10;;
59374;SDS011;45172;55.006;73.460;2022-08-11T02:39:51;304.42;;;177.68;;
59374;SDS011;45172;55.006;73.460;2022-08-11T02:48:13;293.30;;;172.60;;
59374;SDS011;45172;55.006;73.460;2022-08-11T02:54:38;298.23;;;161.27;;
59374;SDS011;45172;55.006;73.460;2022-08-11T02:59:54;282.58;;;160.82;;
59374;SDS011;45172;55.006;73.460;2022-08-11T03:11:09;290.97;;;158.43;;
59374;SDS011;45172;55.006;73.460;2022-08-11T03:17:15;275.15;;;155.23;;
59374;SDS011;45172;55.006;73.460;2022-08-11T03:25:30;276.85;;;156.68;;
59374;SDS011;45172;55.006;73.460;2022-08-11T03:56:32;270.30;;;154.07;;
59374;SDS011;45172;55.006;73.460;2022-08-11T04:17:03;254.52;;;138.88;;
59374;SDS011;45172;55.006;73.460;2022-08-11T04:28:23;255.38;;;139.93;;
59374;SDS011;45172;55.006;73.460;2022-08-11T04:30:57;261.35;;;141.63;;
59374;SDS011;45172;55.006;73.460;2022-08-11T04:42:53;239.07;;;135.88;;
59374;SDS011;45172;55.006;73.460;2022-08-11T04:45:59;240.82;;;135.93;;
59374;SDS011;45172;55.006;73.460;2022-08-11T04:48:52;241.95;;;134.90;;
59374;SDS011;45172;55.006;73.460;2022-08-11T04:51:55;242.13;;;133.70;;
59374;SDS011;45172;55.006;73.460;2022-08-11T05:10:43;238.60;;;135.35;;
59374;SDS011;45172;55.006;73.460;2022-08-11T05:13:42;245.20;;;137.50;;
59374;SDS011;45172;55.006;73.460;2022-08-11T05:16:31;227.40;;;134.20;;
59374;SDS011;45172;55.006;73.460;2022-08-11T05:19:27;246.93;;;133.18;;
59374;SDS011;45172;55.006;73.460;2022-08-11T05:22:12;247.68;;;130.40;;
59374;SDS011;45172;55.006;73.460;2022-08-11T05:25:00;249.93;;;134.70;;
59374;SDS011;45172;55.006;73.460;2022-08-11T05:28:04;244.68;;;135.88;;
59374;SDS011;45172;55.006;73.460;2022-08-11T05:34:08;244.63;;;133.02;;
59374;SDS011;45172;55.006;73.460;2022-08-11T05:37:10;242.63;;;138.25;;
59374;SDS011;45172;55.006;73.460;2022-08-11T05:39:48;231.68;;;127.30;;
59374;SDS011;45172;55.006;73.460;2022-08-11T05:42:43;228.68;;;128.45;;
59374;SDS011;45172;55.006;73.460;2022-08-11T05:45:33;220.15;;;124.32;;
59374;SDS011;45172;55.006;73.460;2022-08-11T05:48:19;236.25;;;125.93;;
59374;SDS011;45172;55.006;73.460;2022-08-11T05:51:05;227.95;;;123.97;;
59374;SDS011;45172;55.006;73.460;2022-08-11T05:53:51;231.95;;;126.30;;
59374;SDS011;45172;55.006;73.460;2022-08-11T05:56:59;223.05;;;120.40;;
59374;SDS011;45172;55.006;73.460;2022-08-11T05:59:27;223.45;;;119.93;;
59374;SDS011;45172;55.006;73.460;2022-08-11T06:02:03;229.20;;;119.65;;
59374;SDS011;45172;55.006;73.460;2022-08-11T06:04:31;226.95;;;120.43;;
59374;SDS011;45172;55.006;73.460;2022-08-11T06:07:16;216.93;;;123.90;;
59374;SDS011;45172;55.006;73.460;2022-08-11T06:14:46;208.48;;;113.03;;
59374;SDS011;45172;55.006;73.460;2022-08-11T06:17:21;212.60;;;117.07;;
59374;SDS011;45172;55.006;73.460;2022-08-11T06:20:07;211.90;;;117.47;;
59374;SDS011;45172;55.006;73.460;2022-08-11T06:22:37;203.95;;;111.93;;
59374;SDS011;45172;55.006;73.460;2022-08-11T06:25:07;209.55;;;117.20;;
59374;SDS011;45172;55.006;73.460;2022-08-11T06:27:35;204.43;;;107.85;;
59374;SDS011;45172;55.006;73.460;2022-08-11T06:33:12;216.70;;;113.35;;
59374;SDS011;45172;55.006;73.460;2022-08-11T06:44:29;201.15;;;108.38;;
59374;SDS011;45172;55.006;73.460;2022-08-11T06:47:07;196.45;;;110.25;;
59374;SDS011;45172;55.006;73.460;2022-08-11T06:49:41;202.50;;;108.30;;
59374;SDS011;45172;55.006;73.460;2022-08-11T06:52:32;208.98;;;112.47;;
59374;SDS011;45172;55.006;73.460;2022-08-11T06:55:10;200.20;;;110.82;;
59374;SDS011;45172;55.006;73.460;2022-08-11T06:57:40;195.70;;;107.78;;
59374;SDS011;45172;55.006;73.460;2022-08-11T07:00:29;200.38;;;109.75;;
59374;SDS011;45172;55.006;73.460;2022-08-11T07:05:38;190.65;;;100.38;;
59374;SDS011;45172;55.006;73.460;2022-08-11T07:14:28;197.32;;;104.38;;
59374;SDS011;45172;55.006;73.460;2022-08-11T07:17:15;190.40;;;100.68;;
59374;SDS011;45172;55.006;73.460;2022-08-11T07:19:50;183.38;;;102.18;;
59374;SDS011;45172;55.006;73.460;2022-08-11T07:22:38;180.43;;;97.90;;
59374;SDS011;45172;55.006;73.460;2022-08-11T07:25:24;189.40;;;96.95;;
59374;SDS011;45172;55.006;73.460;2022-08-11T07:28:10;184.77;;;94.70;;
59374;SDS011;45172;55.006;73.460;2022-08-11T07:31:03;185.13;;;98.15;;
59374;SDS011;45172;55.006;73.460;2022-08-11T07:36:19;168.60;;;90.80;;
59374;SDS011;45172;55.006;73.460;2022-08-11T07:38:53;192.90;;;96.05;;
59374;SDS011;45172;55.006;73.460;2022-08-11T07:41:21;176.38;;;91.15;;
59374;SDS011;45172;55.006;73.460;2022-08-11T07:43:49;178.25;;;97.80;;
59374;SDS011;45172;55.006;73.460;2022-08-11T07:46:38;182.02;;;92.70;;
59374;SDS011;45172;55.006;73.460;2022-08-11T07:49:25;177.38;;;89.95;;
59374;SDS011;45172;55.006;73.460;2022-08-11T07:52:40;167.73;;;87.55;;
59374;SDS011;45172;55.006;73.460;2022-08-11T07:55:07;181.02;;;89.82;;
59374;SDS011;45172;55.006;73.460;2022-08-11T07:57:38;181.10;;;92.80;;
59374;SDS011;45172;55.006;73.460;2022-08-11T08:00:24;162.48;;;89.43;;
59374;SDS011;45172;55.006;73.460;2022-08-11T08:03:09;165.25;;;87.72;;
59374;SDS011;45172;55.006;73.460;2022-08-11T08:05:54;169.60;;;82.50;;
59374;SDS011;45172;55.006;73.460;2022-08-11T08:08:39;175.43;;;84.38;;
59374;SDS011;45172;55.006;73.460;2022-08-11T08:11:25;176.73;;;86.30;;
59374;SDS011;45172;55.006;73.460;2022-08-11T08:14:10;163.38;;;84.38;;
59374;SDS011;45172;55.006;73.460;2022-08-11T08:16:55;166.05;;;85.40;;
59374;SDS011;45172;55.006;73.460;2022-08-11T08:19:42;165.52;;;86.28;;
59374;SDS011;45172;55.006;73.460;2022-08-11T08:22:17;157.38;;;84.22;;
59374;SDS011;45172;55.006;73.460;2022-08-11T08:24:45;158.32;;;81.50;;
59374;SDS011;45172;55.006;73.460;2022-08-11T08:27:12;149.98;;;81.53;;
59374;SDS011;45172;55.006;73.460;2022-08-11T08:29:39;156.02;;;78.75;;
59374;SDS011;45172;55.006;73.460;2022-08-11T08:32:26;146.30;;;77.53;;
59374;SDS011;45172;55.006;73.460;2022-08-11T08:34:53;151.10;;;72.35;;
59374;SDS011;45172;55.006;73.460;2022-08-11T08:37:22;147.27;;;75.50;;
59374;SDS011;45172;55.006;73.460;2022-08-11T08:39:51;141.63;;;72.38;;
59374;SDS011;45172;55.006;73.460;2022-08-11T08:42:28;143.57;;;72.57;;
59374;SDS011;45172;55.006;73.460;2022-08-11T08:44:58;147.18;;;71.13;;
59374;SDS011;45172;55.006;73.460;2022-08-11T08:47:29;140.67;;;73.57;;
59374;SDS011;45172;55.006;73.460;2022-08-11T08:50:05;143.15;;;72.05;;
59374;SDS011;45172;55.006;73.460;2022-08-11T08:52:36;146.55;;;70.18;;
59374;SDS011;45172;55.006;73.460;2022-08-11T08:55:08;149.88;;;75.13;;
59374;SDS011;45172;55.006;73.460;2022-08-11T08:57:41;145.48;;;74.18;;
59374;SDS011;45172;55.006;73.460;2022-08-11T09:00:09;143.98;;;71.90;;
59374;SDS011;45172;55.006;73.460;2022-08-11T09:02:50;177.07;;;75.85;;
59374;SDS011;45172;55.006;73.460;2022-08-11T09:05:22;155.38;;;75.65;;
59374;SDS011;45172;55.006;73.460;2022-08-11T09:07:50;141.65;;;72.28;;
59374;SDS011;45172;55.006;73.460;2022-08-11T09:10:19;138.80;;;66.47;;
59374;SDS011;45172;55.006;73.460;2022-08-11T09:12:46;143.18;;;70.32;;
59374;SDS011;45172;55.006;73.460;2022-08-11T09:15:31;130.98;;;66.80;;
59374;SDS011;45172;55.006;73.460;2022-08-11T09:17:59;134.23;;;67.93;;
59374;SDS011;45172;55.006;73.460;2022-08-11T09:20:34;138.30;;;70.78;;
59374;SDS011;45172;55.006;73.460;2022-08-11T09:23:03;130.45;;;68.32;;
59374;SDS011;45172;55.006;73.460;2022-08-11T09:25:51;133.60;;;60.67;;
59374;SDS011;45172;55.006;73.460;2022-08-11T09:28:40;118.68;;;63.42;;
59374;SDS011;45172;55.006;73.460;2022-08-11T09:31:08;128.23;;;64.60;;
59374;SDS011;45172;55.006;73.460;2022-08-11T09:33:39;115.53;;;60.00;;
59374;SDS011;45172;55.006;73.460;2022-08-11T09:36:07;121.47;;;59.30;;
59374;SDS011;45172;55.006;73.460;2022-08-11T09:38:52;120.63;;;60.75;;
59374;SDS011;45172;55.006;73.460;2022-08-11T09:41:38;114.13;;;56.33;;
59374;SDS011;45172;55.006;73.460;2022-08-11T09:44:06;111.55;;;56.15;;
59374;SDS011;45172;55.006;73.460;2022-08-11T09:46:54;117.97;;;55.55;;
59374;SDS011;45172;55.006;73.460;2022-08-11T09:49:23;106.53;;;53.90;;
59374;SDS011;45172;55.006;73.460;2022-08-11T09:51:51;116.95;;;55.45;;
59374;SDS011;45172;55.006;73.460;2022-08-11T09:54:18;105.00;;;55.65;;
59374;SDS011;45172;55.006;73.460;2022-08-11T09:56:47;105.15;;;56.20;;
59374;SDS011;45172;55.006;73.460;2022-08-11T09:59:32;101.35;;;50.78;;
59374;SDS011;45172;55.006;73.460;2022-08-11T10:02:00;103.95;;;52.38;;
59374;SDS011;45172;55.006;73.460;2022-08-11T10:04:42;99.82;;;51.38;;
59374;SDS011;45172;55.006;73.460;2022-08-11T10:07:14;96.85;;;51.22;;
59374;SDS011;45172;55.006;73.460;2022-08-11T10:09:51;94.88;;;50.03;;
59374;SDS011;45172;55.006;73.460;2022-08-11T10:12:34;97.18;;;47.90;;
59374;SDS011;45172;55.006;73.460;2022-08-11T10:15:06;89.20;;;48.10;;
59374;SDS011;45172;55.006;73.460;2022-08-11T10:17:54;98.72;;;52.05;;
59374;SDS011;45172;55.006;73.460;2022-08-11T10:20:49;107.03;;;51.33;;
59374;SDS011;45172;55.006;73.460;2022-08-11T10:23:25;104.00;;;51.42;;
59374;SDS011;45172;55.006;73.460;2022-08-11T10:26:13;94.40;;;52.40;;
59374;SDS011;45172;55.006;73.460;2022-08-11T10:29:08;107.35;;;56.20;;
59374;SDS011;45172;55.006;73.460;2022-08-11T10:31:59;89.95;;;48.78;;
59374;SDS011;45172;55.006;73.460;2022-08-11T10:34:44;96.00;;;50.35;;
59374;SDS011;45172;55.006;73.460;2022-08-11T10:37:12;102.50;;;49.80;;
59374;SDS011;45172;55.006;73.460;2022-08-11T10:40:02;88.90;;;47.05;;
59374;SDS011;45172;55.006;73.460;2022-08-11T10:42:31;78.25;;;44.55;;
59374;SDS011;45172;55.006;73.460;2022-08-11T10:45:16;85.72;;;45.08;;
59374;SDS011;45172;55.006;73.460;2022-08-11T10:48:06;85.65;;;44.85;;
59374;SDS011;45172;55.006;73.460;2022-08-11T10:50:35;84.65;;;46.28;;
59374;SDS011;45172;55.006;73.460;2022-08-11T10:53:20;84.60;;;45.03;;
59374;SDS011;45172;55.006;73.460;2022-08-11T10:56:16;89.43;;;45.78;;
59374;SDS011;45172;55.006;73.460;2022-08-11T10:59:02;89.93;;;46.97;;
59374;SDS011;45172;55.006;73.460;2022-08-11T11:01:30;83.47;;;46.17;;
59374;SDS011;45172;55.006;73.460;2022-08-11T11:04:15;82.55;;;47.58;;
59374;SDS011;45172;55.006;73.460;2022-08-11T11:09:39;75.88;;;43.42;;
59374;SDS011;45172;55.006;73.460;2022-08-11T11:12:15;80.55;;;43.05;;
59374;SDS011;45172;55.006;73.460;2022-08-11T11:15:04;95.20;;;45.72;;
59374;SDS011;45172;55.006;73.460;2022-08-11T11:17:55;89.93;;;47.28;;
59374;SDS011;45172;55.006;73.460;2022-08-11T11:23:06;88.90;;;43.05;;
59374;SDS011;45172;55.006;73.460;2022-08-11T11:37:23;84.88;;;44.75;;
59374;SDS011;45172;55.006;73.460;2022-08-11T11:39:51;93.53;;;48.05;;
59374;SDS011;45172;55.006;73.460;2022-08-11T11:42:18;89.10;;;48.22;;
59374;SDS011;45172;55.006;73.460;2022-08-11T11:44:46;87.22;;;44.60;;
59374;SDS011;45172;55.006;73.460;2022-08-11T11:47:13;95.20;;;44.83;;
59374;SDS011;45172;55.006;73.460;2022-08-11T11:49:41;89.25;;;47.90;;
59374;SDS011;45172;55.006;73.460;2022-08-11T11:52:13;88.95;;;44.13;;
59374;SDS011;45172;55.006;73.460;2022-08-11T11:54:54;85.80;;;43.55;;
59374;SDS011;45172;55.006;73.460;2022-08-11T11:57:22;97.07;;;48.00;;
59374;SDS011;45172;55.006;73.460;2022-08-11T12:00:17;88.45;;;45.65;;
59374;SDS011;45172;55.006;73.460;2022-08-11T12:03:06;93.97;;;47.08;;
59374;SDS011;45172;55.006;73.460;2022-08-11T12:05:45;95.40;;;47.23;;
59374;SDS011;45172;55.006;73.460;2022-08-11T12:08:12;92.97;;;46.50;;
59374;SDS011;45172;55.006;73.460;2022-08-11T12:10:47;102.13;;;47.25;;
59374;SDS011;45172;55.006;73.460;2022-08-11T12:13:38;96.53;;;49.25;;
59374;SDS011;45172;55.006;73.460;2022-08-11T12:16:11;98.90;;;50.40;;
59374;SDS011;45172;55.006;73.460;2022-08-11T12:18:40;93.43;;;46.38;;
59374;SDS011;45172;55.006;73.460;2022-08-11T12:21:13;116.25;;;64.72;;
59374;SDS011;45172;55.006;73.460;2022-08-11T12:23:41;99.25;;;49.58;;
59374;SDS011;45172;55.006;73.460;2022-08-11T12:26:28;95.32;;;46.33;;
59374;SDS011;45172;55.006;73.460;2022-08-11T12:29:14;101.25;;;51.75;;
59374;SDS011;45172;55.006;73.460;2022-08-11T12:31:44;85.93;;;48.63;;
59374;SDS011;45172;55.006;73.460;2022-08-11T12:34:16;92.95;;;48.28;;
59374;SDS011;45172;55.006;73.460;2022-08-11T12:36:47;92.75;;;49.25;;
59374;SDS011;45172;55.006;73.460;2022-08-11T12:39:23;103.47;;;48.90;;
59374;SDS011;45172;55.006;73.460;2022-08-11T12:42:19;99.72;;;52.38;;
59374;SDS011;45172;55.006;73.460;2022-08-11T12:45:08;116.85;;;60.33;;
59374;SDS011;45172;55.006;73.460;2022-08-11T12:48:03;114.53;;;65.07;;
59374;SDS011;45172;55.006;73.460;2022-08-11T12:51:00;118.45;;;68.07;;
59374;SDS011;45172;55.006;73.460;2022-08-11T12:59:49;225.75;;;165.30;;
59374;SDS011;45172;55.006;73.460;2022-08-11T13:02:35;140.65;;;90.40;;
59374;SDS011;45172;55.006;73.460;2022-08-11T13:05:20;138.15;;;83.63;;
59374;SDS011;45172;55.006;73.460;2022-08-11T13:07:47;108.72;;;57.47;;
59374;SDS011;45172;55.006;73.460;2022-08-11T13:10:15;104.18;;;52.63;;
59374;SDS011;45172;55.006;73.460;2022-08-11T13:13:03;98.90;;;50.28;;
59374;SDS011;45172;55.006;73.460;2022-08-11T13:15:32;105.15;;;50.60;;
59374;SDS011;45172;55.006;73.460;2022-08-11T13:18:01;91.97;;;45.85;;
59374;SDS011;45172;55.006;73.460;2022-08-11T13:20:28;106.68;;;50.92;;
59374;SDS011;45172;55.006;73.460;2022-08-11T13:23:05;96.32;;;51.33;;
59374;SDS011;45172;55.006;73.460;2022-08-11T13:25:31;100.45;;;50.10;;
59374;SDS011;45172;55.006;73.460;2022-08-11T13:27:58;104.85;;;51.53;;
59374;SDS011;45172;55.006;73.460;2022-08-11T13:30:27;104.10;;;50.25;;
59374;SDS011;45172;55.006;73.460;2022-08-11T13:33:13;101.88;;;49.08;;
59374;SDS011;45172;55.006;73.460;2022-08-11T13:35:42;98.75;;;49.15;;
59374;SDS011;45172;55.006;73.460;2022-08-11T13:38:12;99.03;;;47.33;;
59374;SDS011;45172;55.006;73.460;2022-08-11T13:40:39;99.53;;;49.92;;
59374;SDS011;45172;55.006;73.460;2022-08-11T13:43:06;107.50;;;49.08;;
59374;SDS011;45172;55.006;73.460;2022-08-11T13:45:33;99.35;;;47.92;;
59374;SDS011;45172;55.006;73.460;2022-08-11T13:48:02;105.50;;;51.15;;
59374;SDS011;45172;55.006;73.460;2022-08-11T13:50:33;301.13;;;154.25;;
59374;SDS011;45172;55.006;73.460;2022-08-11T13:53:20;204.82;;;129.70;;
59374;SDS011;45172;55.006;73.460;2022-08-11T13:55:47;106.13;;;52.03;;
59374;SDS011;45172;55.006;73.460;2022-08-11T13:58:20;105.38;;;48.95;;
59374;SDS011;45172;55.006;73.460;2022-08-11T14:00:49;97.13;;;48.25;;
59374;SDS011;45172;55.006;73.460;2022-08-11T14:03:25;104.20;;;48.83;;
59374;SDS011;45172;55.006;73.460;2022-08-11T14:05:53;97.00;;;48.25;;
59374;SDS011;45172;55.006;73.460;2022-08-11T14:08:25;101.45;;;47.72;;
59374;SDS011;45172;55.006;73.460;2022-08-11T14:10:58;96.22;;;46.53;;
59374;SDS011;45172;55.006;73.460;2022-08-11T14:13:55;97.28;;;47.35;;
59374;SDS011;45172;55.006;73.460;2022-08-11T14:16:33;104.63;;;49.95;;
59374;SDS011;45172;55.006;73.460;2022-08-11T14:19:06;106.07;;;50.53;;
59374;SDS011;45172;55.006;73.460;2022-08-11T14:21:37;102.05;;;49.83;;
59374;SDS011;45172;55.006;73.460;2022-08-11T14:24:26;102.60;;;52.83;;
59374;SDS011;45172;55.006;73.460;2022-08-11T14:29:39;96.45;;;46.83;;
59374;SDS011;45172;55.006;73.460;2022-08-11T14:32:07;114.13;;;51.20;;
59374;SDS011;45172;55.006;73.460;2022-08-11T14:34:37;128.40;;;57.05;;
59374;SDS011;45172;55.006;73.460;2022-08-11T14:37:07;97.22;;;47.72;;
59374;SDS011;45172;55.006;73.460;2022-08-11T14:39:46;106.03;;;48.25;;
59374;SDS011;45172;55.006;73.460;2022-08-11T14:42:16;100.90;;;49.55;;
59374;SDS011;45172;55.006;73.460;2022-08-11T14:45:04;99.45;;;48.08;;
59374;SDS011;45172;55.006;73.460;2022-08-11T14:47:53;103.80;;;47.28;;
59374;SDS011;45172;55.006;73.460;2022-08-11T14:50:31;99.93;;;45.35;;
59374;SDS011;45172;55.006;73.460;2022-08-11T14:53:04;87.97;;;44.72;;
59374;SDS011;45172;55.006;73.460;2022-08-11T14:55:42;92.28;;;45.38;;
59374;SDS011;45172;55.006;73.460;2022-08-11T14:58:27;90.80;;;45.53;;
59374;SDS011;45172;55.006;73.460;2022-08-11T15:00:56;96.03;;;45.83;;
59374;SDS011;45172;55.006;73.460;2022-08-11T15:03:23;92.28;;;45.45;;
59374;SDS011;45172;55.006;73.460;2022-08-11T15:05:58;93.82;;;46.00;;
59374;SDS011;45172;55.006;73.460;2022-08-11T15:08:32;88.18;;;44.08;;
59374;SDS011;45172;55.006;73.460;2022-08-11T15:11:19;79.00;;;43.25;;
59374;SDS011;45172;55.006;73.460;2022-08-11T15:14:12;86.95;;;42.58;;
59374;SDS011;45172;55.006;73.460;2022-08-11T15:16:43;78.63;;;42.15;;
59374;SDS011;45172;55.006;73.460;2022-08-11T15:19:30;81.35;;;40.85;;
59374;SDS011;45172;55.006;73.460;2022-08-11T15:21:57;85.55;;;41.42;;
59374;SDS011;45172;55.006;73.460;2022-08-11T15:24:46;88.07;;;43.97;;
59374;SDS011;45172;55.006;73.460;2022-08-11T15:27:14;107.43;;;57.58;;
59374;SDS011;45172;55.006;73.460;2022-08-11T15:30:07;87.18;;;40.17;;
59374;SDS011;45172;55.006;73.460;2022-08-11T15:32:53;87.65;;;39.90;;
59374;SDS011;45172;55.006;73.460;2022-08-11T15:35:39;85.18;;;41.67;;
59374;SDS011;45172;55.006;73.460;2022-08-11T15:38:25;83.63;;;43.33;;
59374;SDS011;45172;55.006;73.460;2022-08-11T15:40:55;84.25;;;42.42;;
59374;SDS011;45172;55.006;73.460;2022-08-11T15:43:42;81.90;;;40.85;;
59374;SDS011;45172;55.006;73.460;2022-08-11T15:49:20;84.60;;;40.72;;
59374;SDS011;45172;55.006;73.460;2022-08-11T15:51:55;89.35;;;39.35;;
59374;SDS011;45172;55.006;73.460;2022-08-11T15:54:24;83.90;;;40.72;;
59374;SDS011;45172;55.006;73.460;2022-08-11T15:56:53;88.45;;;41.33;;
59374;SDS011;45172;55.006;73.460;2022-08-11T15:59:21;80.53;;;40.58;;
59374;SDS011;45172;55.006;73.460;2022-08-11T16:02:06;82.10;;;39.85;;
59374;SDS011;45172;55.006;73.460;2022-08-11T16:04:43;82.53;;;39.40;;
59374;SDS011;45172;55.006;73.460;2022-08-11T16:07:13;77.60;;;37.85;;
59374;SDS011;45172;55.006;73.460;2022-08-11T16:09:44;74.57;;;38.10;;
59374;SDS011;45172;55.006;73.460;2022-08-11T16:12:36;79.43;;;40.28;;
59374;SDS011;45172;55.006;73.460;2022-08-11T16:15:04;81.75;;;40.50;;
59374;SDS011;45172;55.006;73.460;2022-08-11T16:17:59;87.32;;;39.95;;
59374;SDS011;45172;55.006;73.460;2022-08-11T16:20:29;92.10;;;40.75;;
59374;SDS011;45172;55.006;73.460;2022-08-11T16:22:58;78.60;;;39.35;;
59374;SDS011;45172;55.006;73.460;2022-08-11T16:25:27;76.82;;;38.58;;
59374;SDS011;45172;55.006;73.460;2022-08-11T16:27:56;73.88;;;37.30;;
59374;SDS011;45172;55.006;73.460;2022-08-11T16:30:31;69.70;;;37.10;;
59374;SDS011;45172;55.006;73.460;2022-08-11T16:33:09;81.35;;;39.17;;
59374;SDS011;45172;55.006;73.460;2022-08-11T16:35:36;70.93;;;37.65;;
59374;SDS011;45172;55.006;73.460;2022-08-11T16:38:25;77.75;;;39.55;;
59374;SDS011;45172;55.006;73.460;2022-08-11T16:41:06;81.55;;;37.97;;
59374;SDS011;45172;55.006;73.460;2022-08-11T16:43:42;77.18;;;38.20;;
59374;SDS011;45172;55.006;73.460;2022-08-11T16:46:29;70.72;;;38.42;;
59374;SDS011;45172;55.006;73.460;2022-08-11T16:49:25;75.47;;;39.00;;
59374;SDS011;45172;55.006;73.460;2022-08-11T16:51:55;79.85;;;38.53;;
59374;SDS011;45172;55.006;73.460;2022-08-11T16:54:26;75.65;;;37.15;;
59374;SDS011;45172;55.006;73.460;2022-08-11T16:56:52;80.55;;;38.45;;
59374;SDS011;45172;55.006;73.460;2022-08-11T16:59:19;76.50;;;36.95;;
59374;SDS011;45172;55.006;73.460;2022-08-11T17:01:58;70.30;;;38.17;;
59374;SDS011;45172;55.006;73.460;2022-08-11T17:04:50;75.88;;;37.67;;
59374;SDS011;45172;55.006;73.460;2022-08-11T17:07:38;76.32;;;38.05;;
59374;SDS011;45172;55.006;73.460;2022-08-11T17:10:47;76.72;;;38.00;;
59374;SDS011;45172;55.006;73.460;2022-08-11T17:13:39;72.65;;;37.35;;
59374;SDS011;45172;55.006;73.460;2022-08-11T17:16:10;67.18;;;35.97;;
59374;SDS011;45172;55.006;73.460;2022-08-11T17:18:46;77.28;;;39.05;;
59374;SDS011;45172;55.006;73.460;2022-08-11T17:24:31;72.75;;;36.88;;
59374;SDS011;45172;55.006;73.460;2022-08-11T17:27:11;78.55;;;38.22;;
59374;SDS011;45172;55.006;73.460;2022-08-11T17:29:47;65.97;;;37.63;;
59374;SDS011;45172;55.006;73.460;2022-08-11T17:32:24;69.85;;;37.42;;
59374;SDS011;45172;55.006;73.460;2022-08-11T17:35:13;72.47;;;37.35;;
59374;SDS011;45172;55.006;73.460;2022-08-11T17:40:44;68.15;;;36.72;;
59374;SDS011;45172;55.006;73.460;2022-08-11T17:43:41;69.32;;;35.75;;
59374;SDS011;45172;55.006;73.460;2022-08-11T17:46:26;72.35;;;37.15;;
59374;SDS011;45172;55.006;73.460;2022-08-11T17:49:12;73.22;;;36.55;;
59374;SDS011;45172;55.006;73.460;2022-08-11T17:51:40;72.07;;;38.58;;
59374;SDS011;45172;55.006;73.460;2022-08-11T17:54:27;71.22;;;37.00;;
59374;SDS011;45172;55.006;73.460;2022-08-11T17:57:14;79.72;;;37.72;;
59374;SDS011;45172;55.006;73.460;2022-08-11T18:00:00;67.38;;;36.25;;
59374;SDS011;45172;55.006;73.460;2022-08-11T18:05:25;75.65;;;39.42;;
59374;SDS011;45172;55.006;73.460;2022-08-11T18:07:54;77.78;;;39.25;;
59374;SDS011;45172;55.006;73.460;2022-08-11T18:10:43;78.03;;;37.97;;
59374;SDS011;45172;55.006;73.460;2022-08-11T18:13:32;75.22;;;39.55;;
59374;SDS011;45172;55.006;73.460;2022-08-11T18:16:19;67.53;;;37.38;;
59374;SDS011;45172;55.006;73.460;2022-08-11T18:19:07;76.20;;;37.90;;
59374;SDS011;45172;55.006;73.460;2022-08-11T18:21:54;69.50;;;39.08;;
59374;SDS011;45172;55.006;73.460;2022-08-11T18:24:55;71.90;;;38.40;;
59374;SDS011;45172;55.006;73.460;2022-08-11T18:27:43;79.28;;;38.58;;
59374;SDS011;45172;55.006;73.460;2022-08-11T18:30:32;78.57;;;38.53;;
59374;SDS011;45172;55.006;73.460;2022-08-11T18:33:19;70.88;;;37.58;;
59374;SDS011;45172;55.006;73.460;2022-08-11T18:36:05;69.75;;;37.00;;
59374;SDS011;45172;55.006;73.460;2022-08-11T18:38:54;77.43;;;38.60;;
59374;SDS011;45172;55.006;73.460;2022-08-11T18:41:41;75.38;;;37.75;;
59374;SDS011;45172;55.006;73.460;2022-08-11T18:44:29;76.72;;;37.30;;
59374;SDS011;45172;55.006;73.460;2022-08-11T18:47:15;68.72;;;37.55;;
59374;SDS011;45172;55.006;73.460;2022-08-11T18:50:03;74.53;;;38.72;;
59374;SDS011;45172;55.006;73.460;2022-08-11T18:53:01;67.68;;;37.08;;
59374;SDS011;45172;55.006;73.460;2022-08-11T18:55:48;78.63;;;37.95;;
59374;SDS011;45172;55.006;73.460;2022-08-11T18:58:35;75.50;;;38.40;;
59374;SDS011;45172;55.006;73.460;2022-08-11T19:01:35;70.97;;;38.50;;
59374;SDS011;45172;55.006;73.460;2022-08-11T19:04:26;76.25;;;39.28;;
59374;SDS011;45172;55.006;73.460;2022-08-11T19:07:12;74.50;;;39.08;;
59374;SDS011;45172;55.006;73.460;2022-08-11T19:09:57;72.03;;;38.78;;
59374;SDS011;45172;55.006;73.460;2022-08-11T19:12:44;76.90;;;38.75;;
59374;SDS011;45172;55.006;73.460;2022-08-11T19:15:30;74.38;;;38.50;;
59374;SDS011;45172;55.006;73.460;2022-08-11T19:18:18;73.80;;;39.45;;
59374;SDS011;45172;55.006;73.460;2022-08-11T19:21:06;74.28;;;38.85;;
59374;SDS011;45172;55.006;73.460;2022-08-11T19:24:03;73.13;;;38.88;;
59374;SDS011;45172;55.006;73.460;2022-08-11T19:26:49;81.78;;;39.60;;
59374;SDS011;45172;55.006;73.460;2022-08-11T19:29:37;69.55;;;39.53;;
59374;SDS011;45172;55.006;73.460;2022-08-11T19:32:25;67.38;;;38.05;;